Terminal Aerodrome Forecast
Issued by NWS St Louis, MO

Home | Current Version | Previous Version | Graphics & Text | Print | Product List | Glossary On
Versions: 1 2 3 4 5 6 7 8 9 10 11 12 13 14 15 16 17 18 19 20 21 22 23 24 25 26 27 28 29 30
000
FTUS43 KLSX 182152 AAA
TAFSTL
TAF AMD
KSTL 182152Z 1822/1924 32015G22KT P6SM OVC018
     FM190000 32019G25KT P6SM BKN050
     FM190300 31012KT P6SM SCT100
     FM191100 31010KT P6SM SKC=

USA.gov is the U.S. government's official web portal to all federal, state and local government web resources and services.